Le Boreal — FLSY — position and weather

sailwx.info

Track history (hours):
 
Tides and Currents Weather Stations Pressure Air Temp Water Temp Dewpoint Dewpoint Depression Visibility Wind Speed Wind Dir Waves Ship Positions

Le Boreal

Last reported at 2015-Jun-29 12:33 UTC. Time now 2015-Jul-02 08:05 UTC.
Position N 69°39' E 018°59'.

Length 142 m; draft 4.9 m.

Type: Passenger vessel. MMSI: 578000500.

Date/timePositionNaut miles runAvg speedWind from/ knotsBaromVisibWave heightAir tempDewpointWater temp
2015-Jun-29 12:33N 69°39' E 018°59'1 0.5
2015-Jun-29 11:19N 69°39' E 018°58'0 0.0
2015-Jun-29 10:31N 69°39' E 018°58'0 0.0
2015-Jun-29 09:31N 69°39' E 018°58'0 0.0
2015-Jun-29 08:25N 69°39' E 018°58'0 0.0
2015-Jun-29 07:28N 69°39' E 018°58'0 0.0
2015-Jun-29 06:31N 69°39' E 018°58'0 0.0
2015-Jun-29 05:31N 69°39' E 018°58'0 0.0
2015-Jun-29 04:33N 69°39' E 018°58'5 5.2
2015-Jun-29 03:33N 69°35' E 018°49'195 3.9
2015-Jun-27 01:29N 66°60' E 013°28'1010.2
2015-Jun-27 00:33N 66°51' E 013°19'99 6.6
2015-Jun-26 09:26N 65°17' E 011°58'1113.0
2015-Jun-26 08:33N 65°07' E 011°49'1110.7
2015-Jun-26 07:33N 64°58' E 011°33'10 9.9
2015-Jun-26 06:33N 64°52' E 011°15'10 9.6
2015-Jun-26 05:33N 64°45' E 010°60'60 9.6
2015-Jun-25 23:23N 63°59' E 009°30'2412.6
2015-Jun-25 21:28N 63°36' E 009°16'  
2015-Jun-19 20:23N 59°15' E 005°21'911.2
2015-Jun-19 19:33N 59°07' E 005°29'1111.2
2015-Jun-19 18:33N 58°58' E 005°44'0 0.0
2015-Jun-19 17:32N 58°58' E 005°44'0 0.0
2015-Jun-19 16:32N 58°58' E 005°44'0 0.0
2015-Jun-19 15:32N 58°58' E 005°44'0 0.0
2015-Jun-19 14:32N 58°58' E 005°44'0 0.0
2015-Jun-19 13:32N 58°58' E 005°44'  
Track history (hours):
 
Tides and Currents Weather Stations Pressure Air Temp Water Temp Dewpoint Dewpoint Depression Visibility Wind Speed Wind Dir Waves Ship Positions

Le Boreal

Last reported at 2015-Jun-29 12:33 UTC. Time now 2015-Jul-02 08:05 UTC.
Position N 69°39' E 018°59'.

Length 142 m; draft 4.9 m.

Type: Passenger vessel. MMSI: 578000500.

Date/timePositionNaut miles runAvg speedWind from/ knotsBaromVisibWave heightAir tempDewpointWater temp
2015-Jun-29 12:33N 69°39' E 018°59'1 0.5
2015-Jun-29 11:19N 69°39' E 018°58'0 0.0
2015-Jun-29 10:31N 69°39' E 018°58'0 0.0
2015-Jun-29 09:31N 69°39' E 018°58'0 0.0
2015-Jun-29 08:25N 69°39' E 018°58'0 0.0
2015-Jun-29 07:28N 69°39' E 018°58'0 0.0
2015-Jun-29 06:31N 69°39' E 018°58'0 0.0
2015-Jun-29 05:31N 69°39' E 018°58'0 0.0
2015-Jun-29 04:33N 69°39' E 018°58'5 5.2
2015-Jun-29 03:33N 69°35' E 018°49'195 3.9
2015-Jun-27 01:29N 66°60' E 013°28'1010.2
2015-Jun-27 00:33N 66°51' E 013°19'99 6.6
2015-Jun-26 09:26N 65°17' E 011°58'1113.0
2015-Jun-26 08:33N 65°07' E 011°49'1110.7
2015-Jun-26 07:33N 64°58' E 011°33'10 9.9
2015-Jun-26 06:33N 64°52' E 011°15'10 9.6
2015-Jun-26 05:33N 64°45' E 010°60'60 9.6
2015-Jun-25 23:23N 63°59' E 009°30'2412.6
2015-Jun-25 21:28N 63°36' E 009°16'  
2015-Jun-19 20:23N 59°15' E 005°21'911.2
2015-Jun-19 19:33N 59°07' E 005°29'1111.2
2015-Jun-19 18:33N 58°58' E 005°44'0 0.0
2015-Jun-19 17:32N 58°58' E 005°44'0 0.0
2015-Jun-19 16:32N 58°58' E 005°44'0 0.0
2015-Jun-19 15:32N 58°58' E 005°44'0 0.0
2015-Jun-19 14:32N 58°58' E 005°44'0 0.0
2015-Jun-19 13:32N 58°58' E 005°44'  

Dump ship's entire track history